Aérodrome :
LOGIN :

S'inscrire | Disclaimer

   EN    FR    IT 

 










Légende :    VFR   VFR Marginal   IFR   IFR Intensif   IFR Très Intensif
Visi : 
Plafond : 
>= 8 km
>= 3000ft
5 à 8 km
1000 à 3000 ft
1500m à 5 km
500 à 1000 ft
800 à 1500m
200 à 500 ft
< 800m
< 200 ft
Symboles :   Orages  Brouillard  Fortes neiges  Fortes précipitations  Vent > 20 kt
SIGMETs :   Divers  Orages  Givrage  Turbulence  Onde Orograph.  Cendres Volcan.







- Altitude de l'aérodrome : 397 ft
- Code IATA : IAS


LRIA - Iasi

DERNIER METAR :
  • 181430Z 10014KT 3000 TSRA BKN027CB 18/16 Q1017 R14/29//95

METARs EXPIRÉS :
  • 181400Z 13022KT 9999 TS VCSH BKN040CB 23/14 Q1017
  • 181330Z 01007KT 9999 FEW033CB FEW040TCU 28/20 Q1016
  • 181300Z 31008KT 9999 FEW033TCU SCT040 29/19 Q1016
  • 181230Z 34005KT 320V020 9999 FEW033TCU SCT040 28/19 Q1016
  • 181200Z 35005KT 310V020 9999 FEW030TCU SCT040 28/19 Q1016

TAF TAF LRIA
Valide du 18 à 15h jusqu'au 19 à 00h UTC


181400Z 1815/1824 06007KT 9999 SCT035
TEMPO 1815/1819 VRB20G30KT 3000 TSRA SCT015 BKN035CB
PROB40 1815/1817 VRB25G35KT 0800 +TSRAGR SQ BKN010 BKN030CB BKN045
Pas de NOTAMs connus pour ce terrain.



MET'MAP, la Météo Aéronautique d'un coup d'oeil ! - Copyright ORBIFLY Décembre 2007 - Disclaimer

ORBIFLY MET'MAP TEAM :

Programmation & Développement : Alexandra Zaïnal
Conception & Développement : Baudouin d'Aumeries
Co-Programmation & Développement : Marc-Olivier Méhu
Soutien technique & logistique : Manuel Goepfert

Contact : metmap@orbifly.com




SOURCES & CREDITS :

   NOAA